Time;durP1;ratioP1;P1;durP2;ratioP2;P2;SDS_P1;SDS_P2;PMS_P1;PMS_P2;Temp;Humidity;BMP_temperature;BMP_pressure;BME280_temperature;BME280_humidity;BME280_pressure;Samples;Min_cycle;Max_cycle;Signal;HPM_P1;HPM_P2
2023/10/23 00:01:49;;;;;;;20.35;11.05;;;9.00;99.90;;;;;;5083236;28;20039;-66
2023/10/23 00:04:15;;;;;;;18.00;10.40;;;9.00;99.90;;;;;;5084037;28;20028;-66
2023/10/23 00:06:41;;;;;;;19.23;10.18;;;9.10;99.90;;;;;;5084070;28;20021;-66
2023/10/23 00:09:06;;;;;;;16.73;9.82;;;9.10;99.90;;;;;;5082848;28;20017;-63
2023/10/23 00:11:32;;;;;;;23.27;10.85;;;9.10;99.90;;;;;;5083692;28;20069;-66
2023/10/23 00:13:58;;;;;;;17.45;9.75;;;9.10;99.90;;;;;;5085699;28;20055;-66
2023/10/23 00:16:23;;;;;;;19.42;10.80;;;9.00;99.90;;;;;;5083440;28;20020;-64
2023/10/23 00:18:49;;;;;;;17.95;10.45;;;9.00;99.90;;;;;;5083948;28;20024;-66
2023/10/23 00:21:16;;;;;;;20.15;10.70;;;9.00;99.90;;;;;;5083089;28;20040;-65
2023/10/23 00:23:41;;;;;;;19.05;10.65;;;9.00;99.90;;;;;;5083215;28;20032;-65
2023/10/23 00:26:07;;;;;;;18.08;10.85;;;8.90;99.90;;;;;;5083808;28;20103;-64
2023/10/23 00:28:33;;;;;;;16.65;10.80;;;8.90;99.90;;;;;;5083166;28;20069;-65
2023/10/23 00:31:00;;;;;;;18.92;10.50;;;8.90;99.90;;;;;;5082423;28;20029;-64
2023/10/23 00:33:26;;;;;;;20.25;10.45;;;8.90;99.90;;;;;;5082677;28;20024;-64
2023/10/23 00:35:53;;;;;;;19.80;11.02;;;8.90;99.90;;;;;;5083307;28;20020;-64
2023/10/23 00:38:18;;;;;;;19.02;9.82;;;8.90;99.90;;;;;;5083455;28;20023;-64
2023/10/23 00:40:44;;;;;;;17.60;10.82;;;8.80;99.90;;;;;;5083072;28;20047;-64
2023/10/23 00:43:14;;;;;;;18.17;11.00;;;8.80;99.90;;;;;;5081251;28;20042;-64
2023/10/23 00:46:01;;;;;;;17.08;10.43;;;8.70;99.90;;;;;;5082788;28;20024;-64
2023/10/23 00:48:27;;;;;;;21.30;11.07;;;8.70;99.90;;;;;;5083546;28;20021;-64
2023/10/23 00:50:59;;;;;;;19.48;11.63;;;8.70;99.90;;;;;;5082183;28;20025;-65
2023/10/23 00:53:27;;;;;;;20.63;11.95;;;8.60;99.90;;;;;;5082727;28;20056;-65
2023/10/23 00:55:54;;;;;;;19.98;12.55;;;8.60;99.90;;;;;;5084246;28;20035;-65
2023/10/23 00:58:24;;;;;;;20.63;11.80;;;8.60;99.90;;;;;;5083091;28;20029;-65
2023/10/23 01:00:50;;;;;;;21.42;12.30;;;8.60;99.90;;;;;;5082326;28;20040;-65
2023/10/23 01:03:16;;;;;;;19.17;11.57;;;8.50;99.90;;;;;;5084183;28;20081;-65
2023/10/23 01:05:42;;;;;;;20.00;12.32;;;8.40;99.90;;;;;;5083100;28;20024;-65
2023/10/23 01:08:08;;;;;;;19.83;12.73;;;8.40;99.90;;;;;;5082224;28;20020;-65
2023/10/23 01:10:34;;;;;;;20.15;12.70;;;8.40;99.90;;;;;;5083771;28;20035;-65
2023/10/23 01:12:59;;;;;;;20.52;12.45;;;8.30;99.90;;;;;;5082851;28;20031;-64
2023/10/23 01:15:26;;;;;;;23.35;12.75;;;8.30;99.90;;;;;;5085629;28;20036;-65
2023/10/23 01:17:52;;;;;;;21.08;12.20;;;8.30;99.90;;;;;;5084020;28;20054;-65
2023/10/23 01:20:18;;;;;;;18.83;11.35;;;8.20;99.90;;;;;;5081955;28;20421;-65
2023/10/23 01:22:44;;;;;;;22.17;11.98;;;8.20;99.90;;;;;;5082012;28;20074;-65
2023/10/23 01:25:16;;;;;;;20.20;11.55;;;8.10;99.90;;;;;;5083790;28;20020;-65
2023/10/23 01:27:42;;;;;;;18.77;11.70;;;8.00;99.90;;;;;;5082828;28;20020;-65
2023/10/23 01:30:08;;;;;;;20.20;11.80;;;8.00;99.90;;;;;;5082489;28;20047;-65
2023/10/23 01:32:35;;;;;;;20.45;11.73;;;7.90;99.90;;;;;;5084178;28;20059;-65
2023/10/23 01:35:00;;;;;;;21.33;12.82;;;7.90;99.90;;;;;;5082380;28;20024;-65
2023/10/23 01:37:26;;;;;;;18.98;12.13;;;7.90;99.90;;;;;;5082520;28;20103;-65
2023/10/23 01:39:51;;;;;;;20.65;12.57;;;7.90;99.90;;;;;;5083413;28;20046;-65
2023/10/23 01:42:17;;;;;;;20.52;12.52;;;7.90;99.90;;;;;;5082043;28;20388;-65
2023/10/23 01:44:43;;;;;;;19.85;12.25;;;7.80;99.90;;;;;;5083037;28;20383;-65
2023/10/23 01:47:08;;;;;;;20.85;12.60;;;7.80;99.90;;;;;;5083236;28;20021;-65
2023/10/23 01:49:34;;;;;;;21.65;12.98;;;7.80;99.90;;;;;;5081805;28;20048;-66
2023/10/23 01:51:59;;;;;;;20.80;13.18;;;7.70;99.90;;;;;;5083177;28;20078;-65
2023/10/23 01:54:25;;;;;;;20.88;13.77;;;7.70;99.90;;;;;;5080949;28;20127;-65
2023/10/23 01:56:51;;;;;;;21.33;14.30;;;7.70;99.90;;;;;;5083579;28;20031;-65
2023/10/23 01:59:17;;;;;;;24.58;15.55;;;7.80;99.90;;;;;;5081710;28;20021;-63
2023/10/23 02:01:42;;;;;;;25.00;14.25;;;7.80;99.90;;;;;;5082758;28;20082;-66
2023/10/23 02:04:08;;;;;;;25.58;15.50;;;7.80;99.90;;;;;;5083001;28;20074;-64
2023/10/23 02:06:34;;;;;;;24.25;16.00;;;7.80;99.90;;;;;;5081284;28;20031;-66
2023/10/23 02:09:00;;;;;;;22.58;15.07;;;7.90;99.90;;;;;;5083267;28;20023;-66
2023/10/23 02:11:25;;;;;;;26.88;16.00;;;7.90;99.90;;;;;;5082545;28;20028;-65
2023/10/23 02:13:51;;;;;;;29.75;17.30;;;7.90;99.90;;;;;;5084266;28;20020;-65
2023/10/23 02:16:17;;;;;;;28.00;16.63;;;7.90;99.90;;;;;;5084115;28;20021;-64
2023/10/23 02:18:42;;;;;;;28.67;16.92;;;8.00;99.90;;;;;;5082774;28;20016;-64
2023/10/23 02:21:08;;;;;;;28.13;16.85;;;8.00;99.90;;;;;;5082662;28;20033;-64
2023/10/23 02:23:34;;;;;;;25.63;16.10;;;8.10;99.90;;;;;;5080902;28;20017;-65
2023/10/23 02:25:59;;;;;;;27.70;15.23;;;8.10;99.90;;;;;;5083340;28;20028;-65
2023/10/23 02:28:26;;;;;;;24.17;15.70;;;8.10;99.90;;;;;;5082258;28;20017;-65
2023/10/23 02:30:51;;;;;;;26.13;15.57;;;8.00;99.90;;;;;;5089836;28;20031;-65
2023/10/23 02:33:17;;;;;;;25.80;16.13;;;8.10;99.90;;;;;;5099603;28;20024;-66
2023/10/23 02:35:43;;;;;;;30.10;17.20;;;8.10;99.90;;;;;;5100116;28;20402;-65
2023/10/23 02:38:09;;;;;;;36.22;17.05;;;8.10;99.90;;;;;;5105004;27;20103;-65
2023/10/23 02:40:35;;;;;;;28.30;17.23;;;8.10;99.90;;;;;;5107320;28;20431;-65
2023/10/23 02:43:00;;;;;;;28.20;18.30;;;8.10;99.90;;;;;;5104986;28;20093;-65
2023/10/23 02:45:26;;;;;;;25.30;16.90;;;8.10;99.90;;;;;;5105449;28;20039;-65
2023/10/23 02:47:53;;;;;;;25.00;16.75;;;8.10;99.90;;;;;;5105802;28;20080;-65
2023/10/23 02:50:19;;;;;;;26.77;17.08;;;8.10;99.90;;;;;;5099472;28;20039;-65
2023/10/23 02:52:44;;;;;;;27.48;16.35;;;8.10;99.90;;;;;;5097542;28;20094;-65
2023/10/23 02:55:10;;;;;;;32.72;16.13;;;8.10;99.90;;;;;;5097406;28;20476;-66
2023/10/23 02:57:36;;;;;;;27.55;16.65;;;8.10;99.90;;;;;;5097401;28;20051;-65
2023/10/23 03:00:05;;;;;;;26.75;16.85;;;8.00;99.90;;;;;;5097459;28;20020;-65
2023/10/23 03:02:30;;;;;;;27.80;17.08;;;8.00;99.90;;;;;;5096789;28;20043;-65
2023/10/23 03:04:56;;;;;;;28.13;17.35;;;8.00;99.90;;;;;;5096590;28;20479;-65
2023/10/23 03:07:22;;;;;;;25.45;15.63;;;8.10;99.90;;;;;;5092722;28;20024;-65
2023/10/23 03:09:47;;;;;;;24.75;15.73;;;8.00;99.90;;;;;;5098513;28;20095;-65
2023/10/23 03:12:13;;;;;;;23.98;14.88;;;7.90;99.90;;;;;;5099407;28;20016;-65
2023/10/23 03:14:38;;;;;;;26.08;15.43;;;7.90;99.90;;;;;;5098744;28;20024;-65
2023/10/23 03:17:04;;;;;;;22.75;13.93;;;7.80;99.90;;;;;;5098197;28;20035;-65
2023/10/23 03:19:30;;;;;;;20.73;12.95;;;7.70;99.90;;;;;;5097797;28;20036;-65
2023/10/23 03:21:56;;;;;;;22.83;13.50;;;7.70;99.90;;;;;;5097502;28;20035;-65
2023/10/23 03:24:22;;;;;;;22.70;14.60;;;7.60;99.90;;;;;;5099903;28;20043;-65
2023/10/23 03:26:47;;;;;;;25.10;15.45;;;7.50;99.90;;;;;;5097613;28;20074;-65
2023/10/23 03:29:13;;;;;;;28.40;17.15;;;7.50;99.90;;;;;;5097606;28;20016;-65
2023/10/23 03:31:38;;;;;;;26.00;17.58;;;7.50;99.90;;;;;;5097521;28;20491;-65
2023/10/23 03:34:04;;;;;;;27.83;16.52;;;7.50;99.90;;;;;;5097029;28;20425;-65
2023/10/23 03:36:29;;;;;;;28.45;18.98;;;7.50;99.90;;;;;;5098992;28;20521;-65
2023/10/23 03:38:55;;;;;;;27.58;16.17;;;7.50;99.90;;;;;;5097086;28;20031;-65
2023/10/23 03:41:21;;;;;;;24.30;15.10;;;7.50;99.90;;;;;;5090744;28;20032;-65
2023/10/23 03:43:46;;;;;;;28.08;17.92;;;7.50;99.90;;;;;;5087534;28;20025;-65
2023/10/23 03:46:12;;;;;;;30.73;20.30;;;7.50;99.90;;;;;;5091121;28;20073;-65
2023/10/23 03:48:37;;;;;;;29.85;19.67;;;7.50;99.90;;;;;;5091997;28;20016;-65
2023/10/23 03:51:03;;;;;;;31.67;19.25;;;7.50;99.90;;;;;;5087814;28;20024;-65
2023/10/23 03:53:29;;;;;;;29.30;18.77;;;7.60;99.90;;;;;;5090041;28;20044;-65
2023/10/23 03:55:55;;;;;;;26.08;16.17;;;7.60;99.90;;;;;;5089127;28;20174;-65
2023/10/23 03:58:21;;;;;;;23.40;15.68;;;7.60;99.90;;;;;;5090451;28;20431;-65
2023/10/23 04:00:51;;;;;;;23.50;15.32;;;7.50;99.90;;;;;;5089637;28;20532;-65
2023/10/23 04:03:16;;;;;;;22.63;14.73;;;7.50;99.90;;;;;;5085567;28;20467;-66
2023/10/23 04:05:42;;;;;;;25.63;15.95;;;7.50;99.90;;;;;;5101060;28;20102;-65
2023/10/23 04:08:08;;;;;;;27.95;17.95;;;7.40;99.90;;;;;;5098154;28;20353;-65
2023/10/23 04:10:34;;;;;;;25.55;16.00;;;7.40;99.90;;;;;;5110685;28;20024;-66
2023/10/23 04:13:00;;;;;;;26.70;17.15;;;7.30;99.90;;;;;;5102053;28;20077;-65
2023/10/23 04:15:25;;;;;;;25.95;16.88;;;7.30;99.90;;;;;;5103370;28;20496;-65
2023/10/23 04:17:51;;;;;;;30.35;18.48;;;7.30;99.90;;;;;;5109053;28;20031;-66
2023/10/23 04:20:17;;;;;;;26.73;17.25;;;7.30;99.90;;;;;;5097351;28;20070;-65
2023/10/23 04:22:43;;;;;;;27.52;18.10;;;7.20;99.90;;;;;;5109249;28;20051;-65
2023/10/23 04:25:09;;;;;;;118.97;26.83;;;7.20;99.90;;;;;;5103249;28;20016;-65
2023/10/23 04:27:35;;;;;;;31.35;20.60;;;7.20;99.90;;;;;;5106686;28;20032;-65
2023/10/23 04:30:00;;;;;;;33.10;21.27;;;7.30;99.90;;;;;;5114482;28;20088;-65
2023/10/23 04:32:27;;;;;;;34.53;23.27;;;7.30;99.90;;;;;;5097278;27;20015;-66
2023/10/23 04:34:53;;;;;;;34.92;22.80;;;7.30;99.90;;;;;;5114163;28;20110;-66
2023/10/23 04:37:18;;;;;;;32.03;22.23;;;7.30;99.90;;;;;;5104261;28;20119;-65
2023/10/23 04:39:44;;;;;;;32.33;20.52;;;7.30;99.90;;;;;;5107834;28;20028;-65
2023/10/23 04:42:09;;;;;;;30.95;21.05;;;7.30;99.90;;;;;;5095831;28;20467;-67
2023/10/23 04:44:35;;;;;;;26.90;18.02;;;7.30;99.90;;;;;;5114058;28;20020;-66
2023/10/23 04:47:00;;;;;;;29.45;18.88;;;7.30;99.90;;;;;;5104601;28;20388;-66
2023/10/23 04:49:26;;;;;;;25.88;17.00;;;7.20;99.90;;;;;;5102655;28;20383;-66
2023/10/23 04:51:52;;;;;;;26.00;16.35;;;7.20;99.90;;;;;;5103105;28;20190;-66
2023/10/23 04:54:18;;;;;;;27.33;15.95;;;7.20;99.90;;;;;;5103813;28;20024;-66
2023/10/23 04:56:44;;;;;;;25.30;17.40;;;7.10;99.90;;;;;;5103301;28;20478;-66
2023/10/23 04:59:09;;;;;;;25.60;18.67;;;7.10;99.90;;;;;;5104686;28;20438;-66
2023/10/23 05:01:35;;;;;;;27.88;19.42;;;7.10;99.90;;;;;;5101611;28;20019;-66
2023/10/23 05:04:00;;;;;;;33.50;20.30;;;7.00;99.90;;;;;;5104035;28;20064;-66
2023/10/23 05:06:26;;;;;;;29.05;19.38;;;7.00;99.90;;;;;;5104930;28;20019;-66
2023/10/23 05:08:52;;;;;;;36.08;23.38;;;7.10;99.90;;;;;;5102297;28;20012;-66
2023/10/23 05:11:18;;;;;;;45.28;28.17;;;7.10;99.90;;;;;;5103449;28;20032;-66
2023/10/23 05:13:45;;;;;;;82.93;35.72;;;7.20;99.90;;;;;;5101947;28;20027;-66
2023/10/23 05:16:12;;;;;;;128.15;43.38;;;7.30;99.90;;;;;;5104559;28;20027;-66
2023/10/23 05:18:38;;;;;;;301.13;61.92;;;7.50;99.90;;;;;;5109306;28;20031;-66
2023/10/23 05:21:12;;;;;;;417.65;77.88;;;7.60;99.90;;;;;;5101699;28;20019;-65
2023/10/23 05:23:38;;;;;;;234.05;54.05;;;7.80;99.90;;;;;;5113722;28;20035;-66
2023/10/23 05:26:04;;;;;;;236.95;50.00;;;7.90;99.90;;;;;;5104878;28;20055;-65
2023/10/23 05:28:29;;;;;;;333.55;61.58;;;7.90;99.90;;;;;;5110675;28;20051;-66
2023/10/23 05:30:55;;;;;;;193.80;47.88;;;8.00;99.90;;;;;;5107710;28;20027;-66
2023/10/23 05:33:20;;;;;;;211.50;50.15;;;8.10;99.90;;;;;;5103153;28;20527;-65
2023/10/23 05:35:46;;;;;;;189.20;49.20;;;8.20;99.90;;;;;;5107644;28;20024;-65
2023/10/23 05:38:13;;;;;;;218.35;52.33;;;8.20;99.90;;;;;;5110479;28;20043;-65
2023/10/23 05:40:38;;;;;;;216.52;50.67;;;8.30;99.90;;;;;;5109458;28;20050;-65
2023/10/23 05:43:04;;;;;;;242.38;54.35;;;8.40;99.90;;;;;;5109570;28;20020;-65
2023/10/23 05:45:29;;;;;;;382.63;67.18;;;8.40;99.90;;;;;;5106328;28;20024;-65
2023/10/23 05:47:55;;;;;;;264.27;56.10;;;8.50;99.90;;;;;;5113308;28;20020;-65
2023/10/23 05:50:20;;;;;;;448.95;78.38;;;8.60;99.90;;;;;;5110927;28;20031;-65
2023/10/23 05:52:46;;;;;;;316.45;56.72;;;8.60;99.90;;;;;;5106724;28;20073;-65
2023/10/23 05:55:12;;;;;;;1353.95;229.75;;;8.70;99.90;;;;;;5104276;28;20024;-66
2023/10/23 05:57:37;;;;;;;282.23;59.20;;;8.80;99.90;;;;;;5106219;28;20016;-65
2023/10/23 06:00:03;;;;;;;271.20;57.60;;;8.80;99.90;;;;;;5104808;28;20115;-65
2023/10/23 06:02:32;;;;;;;374.15;70.43;;;8.90;99.90;;;;;;5095971;28;20112;-65
2023/10/23 06:04:58;;;;;;;369.45;69.60;;;8.90;99.90;;;;;;5105958;28;20027;-65
2023/10/23 06:07:24;;;;;;;327.10;71.95;;;9.00;99.90;;;;;;5104589;28;20020;-66
2023/10/23 06:09:49;;;;;;;479.15;92.75;;;9.10;99.90;;;;;;5102820;27;20051;-65
2023/10/23 06:12:15;;;;;;;706.13;116.47;;;9.10;99.90;;;;;;5113428;28;20035;-65
2023/10/23 06:14:41;;;;;;;276.20;62.08;;;9.20;99.90;;;;;;5096697;28;20108;-65
2023/10/23 06:17:06;;;;;;;326.30;69.85;;;9.20;99.90;;;;;;5105272;28;20021;-65
2023/10/23 06:19:33;;;;;;;202.68;55.55;;;9.20;99.90;;;;;;5105037;28;20277;-66
2023/10/23 06:21:59;;;;;;;279.08;61.17;;;9.30;99.90;;;;;;5112812;28;20097;-66
2023/10/23 06:24:25;;;;;;;341.35;72.47;;;9.30;99.90;;;;;;5096694;28;21641;-65
2023/10/23 06:26:51;;;;;;;255.10;58.83;;;9.30;99.90;;;;;;5090310;28;20447;-65
2023/10/23 06:29:16;;;;;;;206.55;57.35;;;9.30;99.90;;;;;;5106411;28;20012;-66
2023/10/23 06:31:42;;;;;;;170.27;53.63;;;9.40;99.90;;;;;;5089878;28;20037;-66
2023/10/23 06:34:07;;;;;;;325.55;69.85;;;9.40;99.90;;;;;;5088850;28;20031;-65
2023/10/23 06:36:33;;;;;;;156.15;46.70;;;9.40;99.90;;;;;;5093736;28;20084;-65
2023/10/23 06:38:59;;;;;;;156.95;46.53;;;9.40;99.90;;;;;;5108919;28;20028;-65
2023/10/23 06:41:24;;;;;;;223.95;57.42;;;9.40;99.90;;;;;;5106058;28;20333;-65
2023/10/23 06:43:50;;;;;;;186.55;54.13;;;9.40;99.90;;;;;;5101322;28;20032;-66
2023/10/23 06:46:16;;;;;;;136.70;45.67;;;9.40;99.90;;;;;;5102647;28;20034;-66
2023/10/23 06:48:44;;;;;;;250.70;58.03;;;9.50;99.90;;;;;;5106542;28;20023;-66
2023/10/23 06:51:13;;;;;;;250.90;57.10;;;9.50;99.90;;;;;;5106406;28;20047;-65
2023/10/23 06:53:42;;;;;;;175.00;45.70;;;9.50;99.90;;;;;;5094900;28;20055;-66
2023/10/23 06:56:09;;;;;;;195.48;47.70;;;9.60;99.90;;;;;;5112897;28;20034;-66
2023/10/23 06:58:34;;;;;;;158.15;42.58;;;9.60;99.90;;;;;;5095603;28;20020;-65
2023/10/23 07:01:09;;;;;;;219.07;50.83;;;9.60;99.90;;;;;;5103581;28;20076;-66
2023/10/23 07:03:37;;;;;;;162.65;42.45;;;9.60;99.90;;;;;;5103556;28;20034;-66
2023/10/23 07:06:05;;;;;;;134.45;41.83;;;9.70;99.90;;;;;;5107696;28;20017;-66
2023/10/23 07:08:31;;;;;;;172.80;43.50;;;9.70;99.90;;;;;;5080624;28;20034;-66
2023/10/23 07:10:56;;;;;;;320.42;62.05;;;9.80;99.90;;;;;;5102230;28;20027;-66
2023/10/23 07:13:22;;;;;;;217.15;44.05;;;9.90;99.90;;;;;;5104729;28;20107;-66
2023/10/23 07:15:48;;;;;;;189.65;41.92;;;9.90;99.90;;;;;;5096889;28;20035;-66
2023/10/23 07:18:13;;;;;;;160.35;40.88;;;10.00;99.90;;;;;;5111946;28;20149;-66
2023/10/23 07:20:39;;;;;;;248.23;48.90;;;10.10;99.90;;;;;;5099301;28;20079;-66
2023/10/23 07:23:04;;;;;;;122.15;36.15;;;10.10;99.90;;;;;;5101854;28;20047;-66
2023/10/23 07:25:30;;;;;;;123.97;37.20;;;10.10;99.90;;;;;;5105146;28;20160;-66
2023/10/23 07:27:55;;;;;;;181.48;39.95;;;10.20;99.90;;;;;;5095277;28;20123;-66
2023/10/23 07:30:24;;;;;;;202.30;41.38;;;10.20;99.90;;;;;;5111757;28;20080;-66
2023/10/23 07:32:49;;;;;;;346.05;58.45;;;10.30;99.90;;;;;;5101357;28;20035;-65
2023/10/23 07:35:16;;;;;;;1999.90;663.50;;;10.30;99.90;;;;;;5105933;28;20016;-66
2023/10/23 07:37:42;;;;;;;142.07;38.78;;;10.40;99.90;;;;;;5094930;28;20028;-66
2023/10/23 07:40:08;;;;;;;233.20;46.28;;;10.50;99.90;;;;;;5104390;28;20039;-66
2023/10/23 07:42:33;;;;;;;874.85;139.10;;;10.50;99.90;;;;;;5111545;27;20023;-66
2023/10/23 07:45:03;;;;;;;159.82;37.85;;;10.60;99.90;;;;;;5095562;28;20068;-66
2023/10/23 07:47:29;;;;;;;239.77;42.55;;;10.60;99.90;;;;;;5100610;28;20036;-66
2023/10/23 07:49:55;;;;;;;166.63;38.13;;;10.70;99.90;;;;;;5109232;28;20527;-66
2023/10/23 07:52:20;;;;;;;157.25;38.80;;;10.70;99.90;;;;;;5098233;28;20197;-66
2023/10/23 07:54:46;;;;;;;172.18;41.05;;;10.80;99.90;;;;;;5108051;28;20409;-66
2023/10/23 07:57:11;;;;;;;150.43;39.72;;;10.80;99.90;;;;;;5104515;28;20482;-66
2023/10/23 07:59:37;;;;;;;185.20;38.42;;;10.90;99.90;;;;;;5094715;28;20093;-66
2023/10/23 08:02:03;;;;;;;143.95;32.47;;;10.90;99.90;;;;;;5094334;28;20074;-66
2023/10/23 08:04:28;;;;;;;338.58;57.20;;;11.00;99.90;;;;;;5111387;28;20020;-66
2023/10/23 08:06:54;;;;;;;91.72;30.77;;;11.00;99.90;;;;;;5098598;28;20019;-66
2023/10/23 08:09:19;;;;;;;128.00;34.80;;;11.10;99.90;;;;;;5104285;28;20023;-66
2023/10/23 08:11:45;;;;;;;128.02;33.17;;;11.10;99.90;;;;;;5100814;28;20396;-66
2023/10/23 08:14:10;;;;;;;318.10;56.65;;;11.20;99.90;;;;;;5099730;28;20471;-66
2023/10/23 08:16:36;;;;;;;110.15;33.40;;;11.20;99.90;;;;;;5105553;28;20098;-66
2023/10/23 08:19:01;;;;;;;108.93;26.60;;;11.30;99.90;;;;;;5109711;28;20020;-66
2023/10/23 08:21:28;;;;;;;106.13;29.60;;;11.40;99.90;;;;;;5092714;28;20031;-66
2023/10/23 08:23:54;;;;;;;130.73;25.65;;;11.50;99.90;;;;;;5109177;28;20032;-66
2023/10/23 08:26:21;;;;;;;91.75;24.95;;;11.70;99.90;;;;;;5111104;28;20024;-66
2023/10/23 08:28:46;;;;;;;86.70;23.70;;;11.80;99.90;;;;;;5099766;28;20035;-66
2023/10/23 08:31:12;;;;;;;85.32;22.55;;;12.00;99.90;;;;;;5104519;28;20036;-66
2023/10/23 08:33:38;;;;;;;66.07;22.70;;;12.20;99.90;;;;;;5096279;28;20111;-66
2023/10/23 08:36:04;;;;;;;116.75;25.10;;;12.30;99.90;;;;;;5101071;28;20031;-66
2023/10/23 08:38:29;;;;;;;68.95;19.98;;;12.30;99.90;;;;;;5106216;28;20126;-66
2023/10/23 08:40:55;;;;;;;74.38;21.33;;;12.30;99.90;;;;;;5108585;28;20106;-66
2023/10/23 08:43:21;;;;;;;48.40;21.05;;;12.40;99.90;;;;;;5107447;28;20031;-65
2023/10/23 08:45:48;;;;;;;51.72;21.67;;;12.40;99.90;;;;;;5105511;27;20037;-66
2023/10/23 08:48:14;;;;;;;71.47;24.45;;;12.40;99.90;;;;;;5108855;28;20028;-66
2023/10/23 08:50:42;;;;;;;81.47;27.38;;;12.40;99.90;;;;;;5101241;28;20126;-66
2023/10/23 08:53:11;;;;;;;92.60;30.33;;;12.50;99.90;;;;;;5097328;28;20059;-66
2023/10/23 08:55:37;;;;;;;64.32;27.95;;;12.50;99.90;;;;;;5093700;28;20023;-66
2023/10/23 08:58:05;;;;;;;98.63;29.42;;;12.50;99.90;;;;;;5100358;28;20098;-65
2023/10/23 09:00:31;;;;;;;88.55;30.77;;;12.60;99.90;;;;;;5088924;28;20023;-65
2023/10/23 09:02:58;;;;;;;79.68;32.40;;;12.60;99.90;;;;;;5091016;28;20096;-64
2023/10/23 09:05:24;;;;;;;93.10;31.15;;;12.70;99.90;;;;;;5088633;28;20028;-65
2023/10/23 09:07:50;;;;;;;68.60;32.60;;;12.80;99.90;;;;;;5102613;28;20024;-65
2023/10/23 09:10:16;;;;;;;81.50;33.83;;;12.80;99.90;;;;;;5096889;28;20081;-65
2023/10/23 09:12:43;;;;;;;78.05;36.13;;;12.80;99.90;;;;;;5107840;28;20407;-65
2023/10/23 09:15:13;;;;;;;132.65;36.80;;;12.80;99.90;;;;;;5107750;28;20035;-66
2023/10/23 09:17:40;;;;;;;64.90;34.03;;;12.80;99.90;;;;;;5107805;28;20039;-65
2023/10/23 09:20:24;;;;;;;142.30;37.75;;;12.80;99.90;;;;;;5096372;28;20474;-66
2023/10/23 09:22:54;;;;;;;135.68;41.15;;;12.70;99.90;;;;;;5103513;28;20024;-66
2023/10/23 09:25:24;;;;;;;141.95;38.70;;;12.70;99.90;;;;;;5096463;28;20025;-66
2023/10/23 09:27:50;;;;;;;64.45;34.55;;;12.70;99.90;;;;;;5102477;28;20081;-66
2023/10/23 09:30:21;;;;;;;71.47;32.90;;;12.70;99.90;;;;;;5087185;28;20495;-66
2023/10/23 09:32:53;;;;;;;89.78;34.13;;;12.70;99.90;;;;;;5080751;28;20445;-66
2023/10/23 09:35:19;;;;;;;49.83;31.48;;;12.80;99.90;;;;;;5080767;28;20093;-66
2023/10/23 09:37:45;;;;;;;55.25;31.42;;;12.80;99.90;;;;;;5086066;28;20028;-66
2023/10/23 09:40:14;;;;;;;108.30;28.25;;;12.90;99.90;;;;;;5091485;28;20035;-66
2023/10/23 09:42:43;;;;;;;69.47;26.25;;;13.10;99.90;;;;;;5089901;28;20032;-66
2023/10/23 09:45:09;;;;;;;68.85;24.63;;;13.10;99.90;;;;;;5084742;28;20388;-66
2023/10/23 09:47:35;;;;;;;63.75;24.55;;;13.20;99.90;;;;;;5083093;28;20025;-65
2023/10/23 09:50:03;;;;;;;99.15;24.33;;;13.30;99.90;;;;;;5084065;28;20031;-65
2023/10/23 09:52:32;;;;;;;64.95;24.35;;;13.30;99.90;;;;;;5085483;28;20057;-66
2023/10/23 09:55:03;;;;;;;189.00;36.58;;;13.40;99.90;;;;;;5077181;28;20021;-66
2023/10/23 09:57:40;;;;;;;64.93;21.85;;;13.40;99.90;;;;;;5081327;28;20025;-66
2023/10/23 10:00:13;;;;;;;59.17;21.70;;;13.60;99.90;;;;;;5080904;28;20032;-66
2023/10/23 10:02:44;;;;;;;72.30;22.23;;;13.60;99.90;;;;;;5085627;28;20371;-66
2023/10/23 10:05:19;;;;;;;122.07;29.70;;;13.60;99.90;;;;;;5084209;28;20108;-66
2023/10/23 10:07:58;;;;;;;38.97;20.40;;;13.60;99.90;;;;;;5085051;28;20029;-66
2023/10/23 10:10:25;;;;;;;41.15;21.83;;;13.50;99.90;;;;;;5089793;28;20116;-66
2023/10/23 10:12:51;;;;;;;47.28;22.70;;;13.50;99.90;;;;;;5082135;28;20086;-66
2023/10/23 10:15:17;;;;;;;41.00;24.38;;;13.50;99.90;;;;;;5085103;28;20422;-65
2023/10/23 10:17:45;;;;;;;40.75;26.25;;;13.50;99.90;;;;;;5088610;28;20020;-65
2023/10/23 10:20:11;;;;;;;40.00;27.13;;;13.50;99.90;;;;;;5095801;28;20103;-65
2023/10/23 10:22:41;;;;;;;43.72;28.00;;;13.50;99.90;;;;;;5079834;28;20027;-65
2023/10/23 10:25:09;;;;;;;47.08;31.00;;;13.40;99.90;;;;;;5083820;28;20025;-66
2023/10/23 10:27:35;;;;;;;46.13;31.02;;;13.30;99.90;;;;;;5082030;28;20464;-67
2023/10/23 10:30:05;;;;;;;52.58;31.92;;;13.30;99.90;;;;;;5083000;28;20059;-66
2023/10/23 10:32:33;;;;;;;45.33;31.73;;;13.30;99.90;;;;;;5079408;28;20037;-66
2023/10/23 10:35:03;;;;;;;51.25;30.77;;;13.30;99.90;;;;;;5090068;28;20445;-66
2023/10/23 10:37:31;;;;;;;44.22;29.80;;;13.30;99.90;;;;;;5105144;28;20107;-66
2023/10/23 10:39:56;;;;;;;49.08;29.60;;;13.30;99.90;;;;;;5096404;28;20028;-66
2023/10/23 10:42:23;;;;;;;47.20;26.77;;;13.30;99.90;;;;;;5102166;28;20433;-65
2023/10/23 10:45:10;;;;;;;40.60;27.52;;;13.30;99.90;;;;;;5100215;28;20027;-66
2023/10/23 10:47:36;;;;;;;44.60;28.90;;;13.30;99.90;;;;;;5081794;28;20119;-65
2023/10/23 10:50:04;;;;;;;53.92;28.95;;;13.30;99.90;;;;;;5083993;28;20099;-65
2023/10/23 10:52:33;;;;;;;42.55;29.70;;;13.30;99.90;;;;;;5083288;28;20053;-64
2023/10/23 10:55:08;;;;;;;50.67;32.30;;;13.20;99.90;;;;;;5076563;28;20028;-65
2023/10/23 10:57:38;;;;;;;47.05;31.73;;;13.30;99.90;;;;;;5079914;28;20472;-65
2023/10/23 11:00:05;;;;;;;46.60;30.70;;;13.30;99.90;;;;;;5079293;28;20017;-65
2023/10/23 11:02:31;;;;;;;45.05;31.42;;;13.30;99.90;;;;;;5082963;28;20028;-65
2023/10/23 11:04:56;;;;;;;46.33;32.78;;;13.40;99.90;;;;;;5109107;28;20023;-65
2023/10/23 11:07:26;;;;;;;43.25;30.38;;;13.40;99.90;;;;;;5098128;28;20448;-65
2023/10/23 11:09:53;;;;;;;45.15;31.50;;;13.40;99.90;;;;;;5110944;28;20027;-65
2023/10/23 11:12:19;;;;;;;48.70;31.52;;;13.40;99.90;;;;;;5099242;28;20513;-65
2023/10/23 11:14:48;;;;;;;45.20;30.13;;;13.40;99.90;;;;;;5110088;27;20024;-65
2023/10/23 11:17:14;;;;;;;50.47;31.20;;;13.50;99.90;;;;;;5105414;28;20081;-65
2023/10/23 11:19:43;;;;;;;45.17;30.95;;;13.50;99.90;;;;;;5102525;28;20028;-65
2023/10/23 11:22:13;;;;;;;48.42;31.15;;;13.60;99.90;;;;;;5112302;28;20024;-64
2023/10/23 11:24:40;;;;;;;47.25;31.42;;;13.60;99.90;;;;;;5097560;28;20050;-65
2023/10/23 11:27:06;;;;;;;45.25;30.75;;;13.70;99.90;;;;;;5075424;28;20039;-65
2023/10/23 11:29:46;;;;;;;46.50;30.88;;;13.60;99.90;;;;;;5075714;28;20707;-65
2023/10/23 11:32:12;;;;;;;47.85;31.58;;;13.70;99.90;;;;;;5078773;28;20036;-65
2023/10/23 11:34:38;;;;;;;47.95;31.50;;;13.80;99.90;;;;;;5081018;28;20023;-65
2023/10/23 11:37:06;;;;;;;43.95;29.95;;;13.80;99.90;;;;;;5080351;28;20185;-66
2023/10/23 11:39:34;;;;;;;42.78;28.40;;;13.90;99.90;;;;;;5085574;28;20060;-66
2023/10/23 11:42:00;;;;;;;46.13;28.75;;;13.90;99.90;;;;;;5089809;28;20497;-66
2023/10/23 11:44:27;;;;;;;44.97;30.08;;;13.80;99.90;;;;;;5077730;28;20489;-66
2023/10/23 11:47:00;;;;;;;45.22;29.08;;;13.90;99.90;;;;;;5077066;28;20024;-65
2023/10/23 11:49:25;;;;;;;41.35;28.13;;;13.90;99.90;;;;;;5077976;28;20419;-65
2023/10/23 11:51:52;;;;;;;42.40;27.33;;;13.90;99.90;;;;;;5078821;28;20047;-65
2023/10/23 11:54:19;;;;;;;40.38;26.95;;;14.00;99.90;;;;;;5083561;28;20030;-65
2023/10/23 11:56:45;;;;;;;36.22;24.25;;;14.00;99.90;;;;;;5082725;28;20024;-65
2023/10/23 11:59:15;;;;;;;40.15;26.20;;;14.10;99.90;;;;;;5085479;28;20059;-66
2023/10/23 12:01:42;;;;;;;36.47;24.58;;;14.20;99.90;;;;;;5075536;28;20468;-65
2023/10/23 12:04:08;;;;;;;38.20;23.92;;;14.20;99.90;;;;;;5077794;28;20024;-65
2023/10/23 12:06:34;;;;;;;35.15;24.25;;;14.30;99.90;;;;;;5081877;28;20015;-65
2023/10/23 12:09:00;;;;;;;33.83;22.50;;;14.40;99.90;;;;;;5079967;28;20078;-66
2023/10/23 12:11:25;;;;;;;38.38;23.50;;;14.50;99.90;;;;;;5089687;28;20037;-65
2023/10/23 12:13:51;;;;;;;35.67;24.15;;;14.60;99.90;;;;;;5082061;28;20077;-65
2023/10/23 12:16:16;;;;;;;50.85;26.08;;;14.60;99.90;;;;;;5077572;28;20024;-65
2023/10/23 12:18:43;;;;;;;50.60;24.25;;;14.70;99.90;;;;;;5084175;28;20042;-65
2023/10/23 12:21:08;;;;;;;39.33;23.20;;;14.70;99.90;;;;;;5087637;28;20020;-65
2023/10/23 12:23:34;;;;;;;35.75;22.60;;;14.80;99.90;;;;;;5079213;28;20376;-67
2023/10/23 12:25:59;;;;;;;121.38;35.08;;;15.00;99.90;;;;;;5080758;28;20104;-66
2023/10/23 12:28:26;;;;;;;61.58;23.77;;;15.10;99.90;;;;;;5089152;28;20391;-65